createdAt,value
2022-11-10T00:01:09.389Z,10.50
2022-11-10T00:03:36.914Z,10.50
2022-11-10T00:06:06.581Z,10.50
2022-11-10T00:08:33.351Z,10.50
2022-11-10T00:11:04.861Z,10.50
2022-11-10T00:13:33.278Z,10.50
2022-11-10T00:16:19.479Z,10.50
2022-11-10T00:18:46.049Z,10.50
2022-11-10T00:21:13.705Z,10.50
2022-11-10T00:23:40.366Z,10.50
2022-11-10T00:26:17.245Z,10.40
2022-11-10T00:28:43.983Z,10.40
2022-11-10T00:31:10.835Z,10.40
2022-11-10T00:33:38.139Z,10.40
2022-11-10T00:36:04.964Z,10.40
2022-11-10T00:38:31.642Z,10.30
2022-11-10T00:40:58.758Z,10.30
2022-11-10T00:43:26.890Z,10.30
2022-11-10T00:45:53.604Z,10.20
2022-11-10T00:48:20.126Z,10.30
2022-11-10T00:50:46.651Z,10.30
2022-11-10T00:53:15.590Z,10.30
2022-11-10T00:55:42.150Z,10.30
2022-11-10T00:58:08.935Z,10.30
2022-11-10T01:00:35.640Z,10.30
2022-11-10T01:03:02.555Z,10.30
2022-11-10T01:05:29.677Z,10.20
2022-11-10T01:07:57.082Z,10.20
2022-11-10T01:10:23.719Z,10.20
2022-11-10T01:12:52.963Z,10.20
2022-11-10T01:15:27.261Z,10.20
2022-11-10T01:17:57.171Z,10.10
2022-11-10T01:20:28.591Z,10.10
2022-11-10T01:22:55.330Z,10.00
2022-11-10T01:25:22.088Z,10.10
2022-11-10T01:27:48.978Z,10.00
2022-11-10T01:30:15.673Z,10.00
2022-11-10T01:32:42.469Z,10.00
2022-11-10T01:35:09.401Z,10.00
2022-11-10T01:37:36.284Z,10.00
2022-11-10T01:40:04.354Z,10.00
2022-11-10T01:43:00.338Z,10.00
2022-11-10T01:45:29.033Z,10.00
2022-11-10T01:48:01.325Z,10.00
2022-11-10T01:50:32.766Z,10.00
2022-11-10T01:53:01.139Z,9.90
2022-11-10T01:55:28.480Z,9.90
2022-11-10T01:57:57.772Z,9.90
2022-11-10T02:00:24.378Z,9.90
2022-11-10T02:02:56.370Z,9.90
2022-11-10T02:05:23.363Z,9.80
2022-11-10T02:07:52.381Z,9.80
2022-11-10T02:10:21.382Z,9.70
2022-11-10T02:12:48.618Z,9.60
2022-11-10T02:15:16.459Z,9.60
2022-11-10T02:17:43.440Z,9.60
2022-11-10T02:20:11.783Z,9.60
2022-11-10T02:22:38.376Z,9.60
2022-11-10T02:25:07.861Z,9.60
2022-11-10T02:27:34.621Z,9.60
2022-11-10T02:30:01.516Z,9.60
2022-11-10T02:32:28.624Z,9.60
2022-11-10T02:34:55.243Z,9.60
2022-11-10T02:37:24.212Z,9.50
2022-11-10T02:39:50.721Z,9.50
2022-11-10T02:42:19.473Z,9.50
2022-11-10T02:44:46.328Z,9.50
2022-11-10T02:47:12.843Z,9.40
2022-11-10T02:49:39.356Z,9.40
2022-11-10T02:52:05.879Z,9.40
2022-11-10T02:54:34.801Z,9.30
2022-11-10T02:57:02.649Z,9.30
2022-11-10T02:59:31.592Z,9.20
2022-11-10T03:02:02.805Z,9.20
2022-11-10T03:04:29.330Z,9.10
2022-11-10T03:06:55.986Z,9.10
2022-11-10T03:09:24.781Z,9.10
2022-11-10T03:11:51.316Z,9.10
2022-11-10T03:14:17.889Z,9.10
2022-11-10T03:16:49.345Z,9.00
2022-11-10T03:19:18.284Z,9.00
2022-11-10T03:21:45.011Z,9.00
2022-11-10T03:24:11.720Z,9.00
2022-11-10T03:26:38.614Z,8.90
2022-11-10T03:29:05.140Z,8.90
2022-11-10T03:31:31.753Z,8.90
2022-11-10T03:34:00.821Z,8.90
2022-11-10T03:36:27.355Z,8.80
2022-11-10T03:38:56.917Z,8.80
2022-11-10T03:41:23.436Z,8.80
2022-11-10T03:43:50.306Z,8.80
2022-11-10T03:46:17.144Z,8.80
2022-11-10T03:48:47.392Z,8.80
2022-11-10T03:51:19.179Z,8.90
2022-11-10T03:53:45.911Z,8.90
2022-11-10T03:56:12.966Z,8.90
2022-11-10T03:58:40.165Z,8.80
2022-11-10T04:01:09.130Z,8.80
2022-11-10T04:03:35.714Z,8.80
2022-11-10T04:06:21.010Z,8.80
2022-11-10T04:08:59.427Z,8.80
2022-11-10T04:11:44.939Z,8.80
2022-11-10T04:14:30.266Z,8.70
2022-11-10T04:16:57.659Z,8.70
2022-11-10T04:19:24.624Z,8.70
2022-11-10T04:21:51.402Z,8.70
2022-11-10T04:24:20.173Z,8.70
2022-11-10T04:26:48.473Z,8.70
2022-11-10T04:29:16.284Z,8.70
2022-11-10T04:31:43.348Z,8.60
2022-11-10T04:34:11.474Z,8.60
2022-11-10T04:36:41.495Z,8.70
2022-11-10T04:39:08.561Z,8.60
2022-11-10T04:41:35.407Z,8.60
2022-11-10T04:44:02.396Z,8.50
2022-11-10T04:46:30.694Z,8.50
2022-11-10T04:48:59.737Z,8.50
2022-11-10T04:51:30.735Z,8.50
2022-11-10T04:53:57.315Z,8.40
2022-11-10T04:56:24.777Z,8.30
2022-11-10T04:58:51.312Z,8.30
2022-11-10T05:01:19.219Z,8.30
2022-11-10T05:03:46.161Z,8.30
2022-11-10T05:06:15.671Z,8.30
2022-11-10T05:08:42.874Z,8.30
2022-11-10T05:11:09.920Z,8.30
2022-11-10T05:13:36.444Z,8.30
2022-11-10T05:16:05.472Z,8.30
2022-11-10T05:18:34.506Z,8.30
2022-11-10T05:21:01.009Z,8.30
2022-11-10T05:23:39.633Z,8.30
2022-11-10T05:26:07.288Z,8.40
2022-11-10T05:28:33.927Z,8.40
2022-11-10T05:31:00.542Z,8.40
2022-11-10T05:33:27.146Z,8.40
2022-11-10T05:35:53.982Z,8.30
2022-11-10T05:38:22.910Z,8.30
2022-11-10T05:40:49.520Z,8.30
2022-11-10T05:43:18.228Z,8.30
2022-11-10T05:45:47.328Z,8.30
2022-11-10T05:48:13.865Z,8.30
2022-11-10T05:50:40.503Z,8.30
2022-11-10T05:53:07.078Z,8.30
2022-11-10T05:55:33.846Z,8.30
2022-11-10T05:58:00.384Z,8.30
2022-11-10T06:00:28.453Z,8.30
2022-11-10T06:02:58.013Z,8.40
2022-11-10T06:05:29.705Z,8.30
2022-11-10T06:07:58.250Z,8.40
2022-11-10T06:10:25.050Z,8.40
2022-11-10T06:12:51.853Z,8.40
2022-11-10T06:15:18.388Z,8.40
2022-11-10T06:17:49.795Z,8.40
2022-11-10T06:20:19.639Z,8.40
2022-11-10T06:22:58.609Z,8.40
2022-11-10T06:25:30.161Z,8.40
2022-11-10T06:27:57.025Z,8.30
2022-11-10T06:30:26.051Z,8.30
2022-11-10T06:32:54.984Z,8.30
2022-11-10T06:35:21.946Z,8.30
2022-11-10T06:38:01.775Z,8.30
2022-11-10T06:40:29.024Z,8.30
2022-11-10T06:42:57.926Z,8.30
2022-11-10T06:45:24.999Z,8.30
2022-11-10T06:48:09.349Z,8.20
2022-11-10T06:50:40.672Z,8.20
2022-11-10T06:53:07.603Z,8.20
2022-11-10T06:55:34.127Z,8.20
2022-11-10T06:58:03.017Z,8.30
2022-11-10T07:00:29.672Z,8.30
2022-11-10T07:03:06.734Z,8.30
2022-11-10T07:05:34.069Z,8.20
2022-11-10T07:08:04.729Z,8.20
2022-11-10T07:10:33.927Z,8.20
2022-11-10T07:13:02.197Z,8.20
2022-11-10T07:15:28.851Z,8.20
2022-11-10T07:17:55.459Z,8.30
2022-11-10T07:20:22.448Z,8.30
2022-11-10T07:22:53.989Z,8.30
2022-11-10T07:25:20.498Z,8.40
2022-11-10T07:27:52.735Z,8.30
2022-11-10T07:30:19.284Z,8.40
2022-11-10T07:32:45.793Z,8.40
2022-11-10T07:35:12.533Z,8.40
2022-11-10T07:37:39.443Z,8.40
2022-11-10T07:40:06.324Z,8.40
2022-11-10T07:42:41.521Z,8.40
2022-11-10T07:45:10.511Z,8.40
2022-11-10T07:47:37.057Z,8.40
2022-11-10T07:50:03.771Z,8.50
2022-11-10T07:52:30.400Z,8.50
2022-11-10T07:54:56.935Z,8.50
2022-11-10T07:57:23.478Z,8.50
2022-11-10T07:59:52.775Z,8.50
2022-11-10T08:02:20.704Z,8.50
2022-11-10T08:04:49.657Z,8.60
2022-11-10T08:07:16.241Z,8.60
2022-11-10T08:09:42.843Z,8.60
2022-11-10T08:12:11.934Z,8.70
2022-11-10T08:14:43.388Z,8.70
2022-11-10T08:17:10.008Z,8.70
2022-11-10T08:19:36.742Z,8.70
2022-11-10T08:22:03.329Z,8.70
2022-11-10T08:24:30.231Z,8.80
2022-11-10T08:26:56.886Z,8.90
2022-11-10T08:29:23.512Z,8.90
2022-11-10T08:31:53.132Z,8.90
2022-11-10T08:34:19.927Z,9.00
2022-11-10T08:36:46.564Z,9.00
2022-11-10T08:39:24.841Z,9.10
2022-11-10T08:42:02.855Z,9.10
2022-11-10T08:44:29.396Z,9.20
2022-11-10T08:46:55.902Z,9.20
2022-11-10T08:49:22.439Z,9.20
2022-11-10T08:51:51.438Z,9.30
2022-11-10T08:54:18.037Z,9.30
2022-11-10T08:56:44.573Z,9.30
2022-11-10T08:59:13.236Z,9.40
2022-11-10T09:01:39.785Z,9.50
2022-11-10T09:04:06.453Z,9.50
2022-11-10T09:06:33.114Z,9.50
2022-11-10T09:08:59.668Z,9.60
2022-11-10T09:11:26.239Z,9.70
2022-11-10T09:13:57.822Z,9.70
2022-11-10T09:16:26.776Z,9.70
2022-11-10T09:18:53.324Z,9.80
2022-11-10T09:21:19.849Z,9.80
2022-11-10T09:23:46.376Z,9.90
2022-11-10T09:26:13.009Z,9.90
2022-11-10T09:28:39.574Z,10.00
2022-11-10T09:31:06.121Z,10.00
2022-11-10T09:33:32.682Z,10.00
2022-11-10T09:36:02.726Z,10.10
2022-11-10T09:38:29.271Z,10.20
2022-11-10T09:41:04.369Z,10.20
2022-11-10T09:43:33.678Z,10.20
2022-11-10T09:46:05.808Z,10.30
2022-11-10T09:48:36.452Z,10.30
2022-11-10T09:51:05.808Z,10.40
2022-11-10T09:53:36.950Z,10.40
2022-11-10T09:56:04.964Z,10.50
2022-11-10T09:58:39.481Z,10.50
2022-11-10T10:01:12.450Z,10.50
2022-11-10T10:03:45.211Z,10.50
2022-11-10T10:06:15.498Z,10.50
2022-11-10T10:08:48.092Z,10.60
2022-11-10T10:11:14.642Z,10.60
2022-11-10T10:13:56.820Z,10.70
2022-11-10T10:16:23.494Z,10.70
2022-11-10T10:18:49.985Z,10.70
2022-11-10T10:21:19.391Z,10.80
2022-11-10T10:26:39.267Z,10.90
2022-11-10T10:29:09.205Z,11.00
2022-11-10T10:31:42.128Z,11.00
2022-11-10T10:34:12.436Z,11.00
2022-11-10T10:36:39.206Z,11.10
2022-11-10T10:39:07.979Z,11.10
2022-11-10T10:41:36.430Z,11.20
2022-11-10T10:44:08.719Z,11.30
2022-11-10T10:46:43.204Z,11.40
2022-11-10T10:49:28.226Z,11.50
2022-11-10T10:52:15.862Z,11.50
2022-11-10T10:54:42.443Z,11.60
2022-11-10T10:57:23.701Z,11.50
2022-11-10T10:59:50.828Z,11.50
2022-11-10T11:02:28.211Z,11.60
2022-11-10T11:05:10.123Z,11.70
2022-11-10T11:07:36.647Z,11.80
2022-11-10T11:10:03.283Z,12.00
2022-11-10T11:12:32.948Z,12.10
2022-11-10T11:15:11.966Z,12.30
2022-11-10T11:17:38.843Z,12.40
2022-11-10T11:20:14.700Z,12.50
2022-11-10T11:22:41.288Z,12.60
2022-11-10T11:25:27.738Z,12.60
2022-11-10T11:27:59.425Z,12.70
2022-11-10T11:30:32.404Z,12.70
2022-11-10T11:33:04.436Z,12.80
2022-11-10T11:35:42.285Z,12.80
2022-11-10T11:38:18.020Z,13.00
2022-11-10T11:40:47.771Z,13.00
2022-11-10T11:43:37.824Z,13.10
2022-11-10T11:46:04.392Z,13.10
2022-11-10T11:48:33.635Z,13.10
2022-11-10T11:51:05.361Z,13.20
2022-11-10T11:53:39.458Z,13.30
2022-11-10T11:56:22.054Z,13.30
2022-11-10T11:58:51.378Z,13.30
2022-11-10T12:01:20.350Z,13.40
2022-11-10T12:04:12.159Z,13.50
2022-11-10T12:06:50.008Z,13.50
2022-11-10T12:09:37.799Z,13.50
2022-11-10T12:12:13.346Z,13.50
2022-11-10T12:14:49.074Z,13.60
2022-11-10T12:17:34.526Z,13.60
2022-11-10T12:20:06.903Z,13.60
2022-11-10T12:22:33.426Z,13.70
2022-11-10T12:25:05.538Z,13.70
2022-11-10T12:27:33.825Z,13.70
2022-11-10T12:30:05.993Z,13.80
2022-11-10T12:32:39.694Z,13.80
2022-11-10T12:35:15.549Z,13.80
2022-11-10T12:38:05.681Z,13.80
2022-11-10T12:40:37.954Z,13.90
2022-11-10T12:43:13.950Z,13.80
2022-11-10T12:45:46.717Z,13.90
2022-11-10T12:48:14.892Z,13.90
2022-11-10T12:50:41.426Z,13.90
2022-11-10T12:53:22.963Z,13.90
2022-11-10T12:55:57.026Z,13.90
2022-11-10T12:58:26.691Z,14.00
2022-11-10T13:00:59.038Z,14.00
2022-11-10T13:03:32.423Z,14.00
2022-11-10T13:06:00.700Z,14.00
2022-11-10T13:08:35.877Z,14.10
2022-11-10T13:11:11.353Z,14.10
2022-11-10T13:13:53.153Z,14.10
2022-11-10T13:16:40.466Z,14.10
2022-11-10T13:19:32.696Z,14.00
2022-11-10T13:22:01.411Z,14.00
2022-11-10T13:24:34.579Z,14.00
2022-11-10T13:27:05.298Z,14.00
2022-11-10T13:29:34.806Z,14.10
2022-11-10T13:32:07.232Z,14.10
2022-11-10T13:34:37.578Z,14.10
2022-11-10T13:37:24.070Z,14.10
2022-11-10T13:39:50.730Z,14.10
2022-11-10T13:42:23.259Z,14.10
2022-11-10T13:44:51.586Z,14.10
2022-11-10T13:47:34.923Z,14.10
2022-11-10T13:50:06.368Z,14.10
2022-11-10T13:52:35.789Z,14.10
2022-11-10T13:55:17.519Z,14.10
2022-11-10T13:57:57.025Z,14.10
2022-11-10T14:00:27.834Z,14.10
2022-11-10T14:03:01.131Z,14.10
2022-11-10T14:05:38.287Z,14.10
2022-11-10T14:08:10.847Z,14.10
2022-11-10T14:10:44.323Z,14.10
2022-11-10T14:13:32.024Z,14.10
2022-11-10T14:15:58.652Z,14.10
2022-11-10T14:18:30.237Z,14.10
2022-11-10T14:20:58.033Z,14.10
2022-11-10T14:23:24.541Z,14.00
2022-11-10T14:26:16.051Z,14.00
2022-11-10T14:28:42.683Z,14.00
2022-11-10T14:31:16.241Z,13.90
2022-11-10T14:33:45.195Z,14.00
2022-11-10T14:36:12.735Z,13.90
2022-11-10T14:38:45.795Z,13.90
2022-11-10T14:41:17.936Z,13.80
2022-11-10T14:43:44.448Z,13.80
2022-11-10T14:46:13.980Z,13.80
2022-11-10T14:48:42.901Z,13.80
2022-11-10T14:51:11.824Z,13.80
2022-11-10T14:53:42.024Z,13.70
2022-11-10T14:56:14.629Z,13.70
2022-11-10T14:58:42.215Z,13.70
2022-11-10T15:01:24.725Z,13.60
2022-11-10T15:03:51.670Z,13.60
2022-11-10T15:06:18.387Z,13.60
2022-11-10T15:08:47.284Z,13.50
2022-11-10T15:11:52.713Z,13.50
2022-11-10T15:14:38.564Z,13.50
2022-11-10T15:17:05.100Z,13.50
2022-11-10T15:19:32.716Z,13.40
2022-11-10T15:22:06.601Z,13.40
2022-11-10T15:24:33.194Z,13.40
2022-11-10T15:27:00.589Z,13.30
2022-11-10T15:29:30.284Z,13.30
2022-11-10T15:31:56.804Z,13.30
2022-11-10T15:34:29.437Z,13.20
2022-11-10T15:37:13.855Z,13.20
2022-11-10T15:39:40.482Z,13.20
2022-11-10T15:42:16.862Z,13.10
2022-11-10T15:44:46.998Z,13.10
2022-11-10T15:47:15.079Z,13.10
2022-11-10T15:49:41.984Z,13.10
2022-11-10T15:52:13.536Z,13.00
2022-11-10T15:54:40.197Z,13.00
2022-11-10T15:57:15.250Z,13.00
2022-11-10T15:59:41.848Z,13.00
2022-11-10T16:02:22.902Z,13.00
2022-11-10T16:04:52.420Z,12.90
2022-11-10T16:07:21.163Z,12.90
2022-11-10T16:09:47.753Z,12.80
2022-11-10T16:12:18.330Z,12.80
2022-11-10T16:14:47.095Z,12.80
2022-11-10T16:17:18.261Z,12.80
2022-11-10T16:19:45.930Z,12.80
2022-11-10T16:22:17.217Z,12.70
2022-11-10T16:24:43.724Z,12.70
2022-11-10T16:27:12.335Z,12.60
2022-11-10T16:29:39.017Z,12.60
2022-11-10T16:32:09.101Z,12.50
2022-11-10T16:34:40.589Z,12.50
2022-11-10T16:37:10.068Z,12.50
2022-11-10T16:39:36.962Z,12.50
2022-11-10T16:42:03.550Z,12.40
2022-11-10T16:44:30.371Z,12.30
2022-11-10T16:46:57.300Z,12.40
2022-11-10T16:49:31.552Z,12.30
2022-11-10T16:52:00.546Z,12.30
2022-11-10T16:54:27.097Z,12.30
2022-11-10T16:56:53.611Z,12.20
2022-11-10T16:59:20.207Z,12.20
2022-11-10T17:01:47.444Z,12.20
2022-11-10T17:04:14.497Z,12.20
2022-11-10T17:06:41.177Z,12.10
2022-11-10T17:09:21.984Z,12.10
2022-11-10T17:11:48.590Z,12.00
2022-11-10T17:14:15.242Z,12.00
2022-11-10T17:16:48.182Z,12.00
2022-11-10T17:19:23.462Z,11.90
2022-11-10T17:21:50.630Z,11.90
2022-11-10T17:24:17.318Z,11.90
2022-11-10T17:26:44.336Z,11.80
2022-11-10T17:29:21.155Z,11.80
2022-11-10T17:31:50.138Z,11.70
2022-11-10T17:34:16.721Z,11.60
2022-11-10T17:36:45.935Z,11.60
2022-11-10T17:39:13.915Z,11.60
2022-11-10T17:41:40.812Z,11.60
2022-11-10T17:44:14.352Z,11.60
2022-11-10T17:46:43.805Z,11.50
2022-11-10T17:49:10.544Z,11.50
2022-11-10T17:51:37.369Z,11.50
2022-11-10T17:54:07.836Z,11.50
2022-11-10T17:56:34.336Z,11.50
2022-11-10T17:59:00.844Z,11.40
2022-11-10T18:01:27.425Z,11.40
2022-11-10T18:03:54.079Z,11.40
2022-11-10T18:06:21.047Z,11.30
2022-11-10T18:08:47.998Z,11.30
2022-11-10T18:11:16.267Z,11.10
2022-11-10T18:13:43.169Z,11.10
2022-11-10T18:16:12.955Z,11.10
2022-11-10T18:18:39.633Z,11.10
2022-11-10T18:21:06.355Z,11.00
2022-11-10T18:23:33.179Z,11.00
2022-11-10T18:26:17.931Z,11.00
2022-11-10T18:28:48.430Z,10.90
2022-11-10T18:31:15.274Z,10.90
2022-11-10T18:33:41.868Z,10.80
2022-11-10T18:36:09.040Z,10.80
2022-11-10T18:38:35.826Z,10.80
2022-11-10T18:41:23.132Z,10.70
2022-11-10T18:43:49.697Z,10.70
2022-11-10T18:46:17.704Z,10.60
2022-11-10T18:48:47.641Z,10.60
2022-11-10T18:51:14.948Z,10.60
2022-11-10T18:53:43.839Z,10.60
2022-11-10T18:56:10.437Z,10.60
2022-11-10T18:58:40.087Z,10.50
2022-11-10T19:01:07.581Z,10.50
2022-11-10T19:03:34.786Z,10.40
2022-11-10T19:06:01.618Z,10.30
2022-11-10T19:08:28.468Z,10.30
2022-11-10T19:10:59.903Z,10.30
2022-11-10T19:13:28.968Z,10.30
2022-11-10T19:15:59.954Z,10.30
2022-11-10T19:18:29.098Z,10.30
2022-11-10T19:20:55.603Z,10.30
2022-11-10T19:23:22.634Z,10.20
2022-11-10T19:25:58.405Z,10.20
2022-11-10T19:28:27.481Z,10.20
2022-11-10T19:30:59.953Z,10.10
2022-11-10T19:33:28.005Z,10.00
2022-11-10T19:36:00.795Z,10.00
2022-11-10T19:38:28.756Z,10.00
2022-11-10T19:40:55.324Z,10.00
2022-11-10T19:43:24.469Z,10.00
2022-11-10T19:45:51.311Z,10.00
2022-11-10T19:48:17.917Z,10.00
2022-11-10T19:50:49.313Z,9.90
2022-11-10T19:53:18.550Z,9.90
2022-11-10T19:55:47.556Z,9.90
2022-11-10T19:58:14.162Z,9.90
2022-11-10T20:00:44.606Z,9.90
2022-11-10T20:03:11.398Z,9.90
2022-11-10T20:05:39.722Z,9.90
2022-11-10T20:08:10.894Z,9.90
2022-11-10T20:10:43.597Z,9.90
2022-11-10T20:13:13.176Z,9.80
2022-11-10T20:15:40.841Z,9.70
2022-11-10T20:18:07.900Z,9.70
2022-11-10T20:20:34.797Z,9.70
2022-11-10T20:23:02.164Z,9.60
2022-11-10T20:25:28.928Z,9.60
2022-11-10T20:27:55.494Z,9.70
2022-11-10T20:30:23.819Z,9.70
2022-11-10T20:32:51.026Z,9.70
2022-11-10T20:35:17.607Z,9.60
2022-11-10T20:37:46.312Z,9.60
2022-11-10T20:40:42.221Z,9.60
2022-11-10T20:43:02.332Z,9.60
2022-11-10T20:45:28.876Z,9.60
2022-11-10T20:47:57.706Z,9.60
2022-11-10T20:50:27.458Z,9.60
2022-11-10T20:52:56.479Z,9.50
2022-11-10T20:55:51.499Z,9.50
2022-11-10T20:58:09.533Z,9.50
2022-11-10T21:00:38.240Z,9.40
2022-11-10T21:03:07.041Z,9.40
2022-11-10T21:05:33.675Z,9.40
2022-11-10T21:08:00.359Z,9.30
2022-11-10T21:10:26.912Z,9.30
2022-11-10T21:12:55.647Z,9.30
2022-11-10T21:15:22.200Z,9.20
2022-11-10T21:17:48.727Z,9.20
2022-11-10T21:20:15.529Z,9.20
2022-11-10T21:22:42.102Z,9.20
2022-11-10T21:25:08.823Z,9.20
2022-11-10T21:27:37.879Z,9.20
2022-11-10T21:30:11.474Z,9.20
2022-11-10T21:32:40.646Z,9.20
2022-11-10T21:35:07.449Z,9.10
2022-11-10T21:37:36.413Z,9.10
2022-11-10T21:40:03.227Z,9.10
2022-11-10T21:42:34.322Z,9.10
2022-11-10T21:45:02.047Z,9.00
2022-11-10T21:47:28.573Z,9.00
2022-11-10T21:49:55.125Z,9.00
2022-11-10T21:52:21.653Z,8.90
2022-11-10T21:54:50.713Z,8.90
2022-11-10T21:57:17.240Z,8.90
2022-11-10T21:59:43.749Z,8.90
2022-11-10T22:02:10.618Z,8.90
2022-11-10T22:04:39.532Z,8.80
2022-11-10T22:07:24.232Z,8.70
2022-11-10T22:10:10.036Z,8.70
2022-11-10T22:12:55.040Z,8.70
2022-11-10T22:15:40.443Z,8.70
2022-11-10T22:18:30.625Z,8.70
2022-11-10T22:20:57.217Z,8.70
2022-11-10T22:23:43.728Z,8.70
2022-11-10T22:26:10.585Z,8.70
2022-11-10T22:28:39.523Z,8.60
2022-11-10T22:31:07.163Z,8.60
2022-11-10T22:33:36.090Z,8.50
2022-11-10T22:36:03.897Z,8.50
2022-11-10T22:38:33.151Z,8.50
2022-11-10T22:41:18.245Z,8.40
2022-11-10T22:44:03.585Z,8.40
2022-11-10T22:46:40.458Z,8.40
2022-11-10T22:49:08.114Z,8.40
2022-11-10T22:51:34.901Z,8.30
2022-11-10T22:54:01.677Z,8.30
2022-11-10T22:56:28.770Z,8.30
2022-11-10T22:58:59.575Z,8.30
2022-11-10T23:01:26.525Z,8.30
2022-11-10T23:03:56.494Z,8.30
2022-11-10T23:06:23.182Z,8.20
2022-11-10T23:08:49.816Z,8.20
2022-11-10T23:11:17.373Z,8.20
2022-11-10T23:13:43.911Z,8.10
2022-11-10T23:16:16.109Z,8.10
2022-11-10T23:18:44.550Z,8.10
2022-11-10T23:21:12.807Z,8.10
2022-11-10T23:23:40.376Z,8.00
2022-11-10T23:26:10.553Z,8.00
2022-11-10T23:28:37.611Z,8.00
2022-11-10T23:31:11.567Z,8.00
2022-11-10T23:33:39.059Z,8.00
2022-11-10T23:36:06.057Z,7.90
2022-11-10T23:38:35.979Z,7.90
2022-11-10T23:41:05.775Z,7.90
2022-11-10T23:43:32.313Z,7.90
2022-11-10T23:46:07.629Z,7.90
2022-11-10T23:48:37.739Z,7.90
2022-11-10T23:51:05.382Z,7.90
2022-11-10T23:53:32.019Z,7.90
2022-11-10T23:55:59.484Z,7.80
2022-11-10T23:58:26.481Z,7.80
